Club Med II — FNIR — position and weather

sailwx.info

Track history (hours):
 
Tides and Currents Weather Stations Pressure Air Temp Water Temp Dewpoint Dewpoint Depression Visibility Wind Speed Wind Dir Waves Ship Positions

Club Med II

Operator: V.Ships Leisure S.A.M

Last reported at 2019-Jun-16 01:01 UTC. Time now 2019-Jun-16 01:19 UTC.
Position N 43°09' E 009°53'.

Length 187 m; draft 5.4 m.

Type: Ship. MMSI: 227194000.

Date/timePositionNaut miles runAvg speedWind from/ knotsBaromVisibWave heightAir tempDewpointWater temp
2019-Jun-16 01:01N 43°09' E 009°53'4 7.6
2019-Jun-16 00:30N 43°09' E 009°47'4 8.1
2019-Jun-16 00:01N 43°09' E 009°42'4 8.0
2019-Jun-15 23:30N 43°09' E 009°36'4 7.8
2019-Jun-15 23:00N 43°08' E 009°31'4 7.6
2019-Jun-15 22:31N 43°08' E 009°26'4 7.6
2019-Jun-15 22:00N 43°08' E 009°21'4 7.1
2019-Jun-15 21:30N 43°08' E 009°16'4 7.1
2019-Jun-15 21:01N 43°04' E 009°14'4 7.6
2019-Jun-15 20:31N 43°01' E 009°12'4 7.6
2019-Jun-15 20:01N 42°58' E 009°09'4 7.5
2019-Jun-15 19:31N 42°54' E 009°07'4 7.5
2019-Jun-15 19:00N 42°51' E 009°05'4 7.3
2019-Jun-15 18:28N 42°47' E 009°03'4 7.5
2019-Jun-15 18:00N 42°44' E 009°01'3 7.0
2019-Jun-15 17:30N 42°41' E 008°58'3 5.3
2019-Jun-15 17:01N 42°39' E 008°57'0 0.0
2019-Jun-15 16:26N 42°39' E 008°57'0 0.0
2019-Jun-15 15:59N 42°39' E 008°57'0 0.0
2019-Jun-15 15:29N 42°39' E 008°57'0 0.0
2019-Jun-15 14:59N 42°39' E 008°57'0 0.0
2019-Jun-15 14:26N 42°39' E 008°57'0 0.0
2019-Jun-15 13:59N 42°39' E 008°57'0 0.0
2019-Jun-15 13:26N 42°39' E 008°57'0 0.1
2019-Jun-15 12:59N 42°39' E 008°57'0 0.1
2019-Jun-15 12:29N 42°39' E 008°57'0 0.1
2019-Jun-15 11:56N 42°39' E 008°57'0 0.0
2019-Jun-15 11:17N 42°39' E 008°57'0 0.1
2019-Jun-15 10:59N 42°39' E 008°57'0 0.1
2019-Jun-15 10:29N 42°39' E 008°57'0 0.0
2019-Jun-15 09:44N 42°39' E 008°57'0 0.1
2019-Jun-15 09:29N 42°39' E 008°57'0 0.0
2019-Jun-15 08:47N 42°39' E 008°57'0 0.0
2019-Jun-15 08:29N 42°39' E 008°57'0 0.0
2019-Jun-15 07:56N 42°39' E 008°57'0 0.1
2019-Jun-15 07:29N 42°39' E 008°57'0 0.1
2019-Jun-15 06:59N 42°39' E 008°57'0 0.0
2019-Jun-15 06:13N 42°39' E 008°57'0 0.1
2019-Jun-15 06:00N 42°39' E 008°57'4 4.8
2019-Jun-15 05:13N 42°41' E 008°53'2 8.5
2019-Jun-15 05:00N 42°43' E 008°51'5 8.2
2019-Jun-15 04:25N 42°46' E 008°47'4 8.0
2019-Jun-15 03:52N 42°48' E 008°42'4 8.8
2019-Jun-15 03:28N 42°51' E 008°38'6 8.8
2019-Jun-15 02:50N 42°54' E 008°32'8 8.7
2019-Jun-15 01:56N 42°59' E 008°24'4 8.9
2019-Jun-15 01:29N 43°01' E 008°19'14 8.7
2019-Jun-14 23:55N 43°10' E 008°05'4 9.3
2019-Jun-14 23:30N 43°12' E 008°01'5 9.5
2019-Jun-14 23:00N 43°15' E 007°56'5 9.3
2019-Jun-14 22:31N 43°18' E 007°51'5 9.2
2019-Jun-14 22:01N 43°21' E 007°46'5 9.2
2019-Jun-14 21:31N 43°24' E 007°41'5 9.2
2019-Jun-14 21:01N 43°27' E 007°36'5 9.4
2019-Jun-14 20:31N 43°30' E 007°31'5 9.3
2019-Jun-14 20:01N 43°33' E 007°26'4 9.0
2019-Jun-14 19:30N 43°35' E 007°21'4 8.3
2019-Jun-14 19:01N 43°39' E 007°18'3 5.2
2019-Jun-14 18:27N 43°42' E 007°17'0 0.0
2019-Jun-14 18:00N 43°42' E 007°17'0 0.0
2019-Jun-14 17:30N 43°42' E 007°17'0 0.0
2019-Jun-14 17:00N 43°42' E 007°17'0 0.0
2019-Jun-14 16:30N 43°42' E 007°17'0 0.0
2019-Jun-14 16:00N 43°42' E 007°17'0 0.0
2019-Jun-14 15:30N 43°42' E 007°17'0 0.0
2019-Jun-14 15:00N 43°42' E 007°17'0 0.0
2019-Jun-14 14:30N 43°42' E 007°17'0 0.0
2019-Jun-14 14:00N 43°42' E 007°17'0 0.0
2019-Jun-14 13:30N 43°42' E 007°17'0 0.0
2019-Jun-14 13:00N 43°42' E 007°17'0 0.0
2019-Jun-14 12:30N 43°42' E 007°17'0 0.0
2019-Jun-14 12:00N 43°42' E 007°17'0 0.0
2019-Jun-14 11:30N 43°42' E 007°17'0 0.0
2019-Jun-14 11:00N 43°42' E 007°17'0 0.0
2019-Jun-14 10:30N 43°42' E 007°17'0 0.0
2019-Jun-14 10:00N 43°42' E 007°17'0 0.0
2019-Jun-14 09:30N 43°42' E 007°17'0 0.0
2019-Jun-14 09:00N 43°42' E 007°17'0 0.0
2019-Jun-14 08:30N 43°42' E 007°17'0 0.0
2019-Jun-14 08:00N 43°42' E 007°17'0 0.0
2019-Jun-14 07:30N 43°42' E 007°17'0 0.0
2019-Jun-14 07:00N 43°42' E 007°17'0 0.0
2019-Jun-14 06:30N 43°42' E 007°17'0 0.0
2019-Jun-14 06:00N 43°42' E 007°17'0 0.7
2019-Jun-14 05:30N 43°41' E 007°17'3 6.6
2019-Jun-14 05:00N 43°39' E 007°21'611.5
2019-Jun-14 04:31N 43°37' E 007°28'713.3
2019-Jun-14 04:00N 43°35' E 007°37'713.2
2019-Jun-14 03:30N 43°33' E 007°46'613.1
2019-Jun-14 03:01N 43°31' E 007°54'713.1
2019-Jun-14 02:30N 43°29' E 008°03'713.0
2019-Jun-14 02:00N 43°27' E 008°11'713.1
2019-Jun-14 01:30N 43°25' E 008°20'713.2
2019-Jun-14 01:00N 43°23' E 008°28'713.1
2019-Jun-14 00:30N 43°21' E 008°37'713.0
2019-Jun-14 00:00N 43°19' E 008°45'612.7
2019-Jun-13 23:31N 43°17' E 008°54'612.7
2019-Jun-13 23:00N 43°15' E 009°02'714.4
2019-Jun-13 22:30N 43°13' E 009°12'714.6
2019-Jun-13 22:00N 43°11' E 009°21'714.5
2019-Jun-13 21:31N 43°08' E 009°30'713.5
2019-Jun-13 21:00N 43°04' E 009°38'714.3
2019-Jun-13 20:30N 42°57' E 009°41'611.6
2019-Jun-13 20:00N 42°54' E 009°47'713.9
2019-Jun-13 19:30N 42°54' E 009°57'714.2
2019-Jun-13 19:01N 42°54' E 010°07'714.0
2019-Jun-13 18:30N 42°53' E 010°16'611.0
2019-Jun-13 18:00N 42°49' E 010°20'0 0.2
2019-Jun-13 17:30N 42°48' E 010°20'0 0.0
2019-Jun-13 16:54N 42°48' E 010°20'0 0.0
2019-Jun-13 16:30N 42°48' E 010°20'0 0.0
2019-Jun-13 16:00N 42°48' E 010°20'0 0.0
2019-Jun-13 15:21N 42°48' E 010°20'0 0.0
2019-Jun-13 14:24N 42°48' E 010°20'0 0.0
2019-Jun-13 13:03N 42°48' E 010°20'0 0.0
2019-Jun-13 13:00N 42°48' E 010°20'0 0.0
2019-Jun-13 12:30N 42°48' E 010°20'0 0.0
2019-Jun-13 12:00N 42°48' E 010°20'0 0.0
2019-Jun-13 11:30N 42°48' E 010°20'0 0.0
2019-Jun-13 10:57N 42°48' E 010°20'0 0.0
2019-Jun-13 10:27N 42°48' E 010°20'0 0.0
2019-Jun-13 09:57N 42°48' E 010°20'0 0.0
2019-Jun-13 09:24N 42°48' E 010°20'0 0.0
2019-Jun-13 09:00N 42°48' E 010°20'0 0.0
2019-Jun-13 08:21N 42°48' E 010°20'0 0.0
2019-Jun-13 08:00N 42°48' E 010°20'0 0.0
2019-Jun-13 07:30N 42°48' E 010°20'0 0.0
2019-Jun-13 07:00N 42°48' E 010°20'0 0.0
2019-Jun-13 06:30N 42°49' E 010°20'1 2.9
2019-Jun-13 06:00N 42°50' E 010°21'3 6.7
2019-Jun-13 05:30N 42°53' E 010°18'4 7.9
2019-Jun-13 05:00N 42°53' E 010°12'3 6.9
2019-Jun-13 04:30N 42°53' E 010°08'4 7.9
2019-Jun-13 03:59N 42°53' E 010°02'4 8.0
2019-Jun-13 03:29N 42°51' E 009°57'4 8.1
2019-Jun-13 03:00N 42°48' E 009°55'4 8.0
2019-Jun-13 02:30N 42°44' E 009°53'4 7.9
2019-Jun-13 02:00N 42°40' E 009°51'5 8.3
2019-Jun-13 01:23N 42°35' E 009°49'3 8.4
2019-Jun-13 01:00N 42°32' E 009°47'4 7.6
2019-Jun-13 00:30N 42°29' E 009°46'4 7.4
2019-Jun-13 00:00N 42°25' E 009°46'72 3.8
2019-Jun-12 05:09N 41°24' E 008°54'1910.7
2019-Jun-12 03:23N 41°35' E 008°34'511.5
2019-Jun-12 02:57N 41°39' E 008°30'1211.4
2019-Jun-12 01:56N 41°49' E 008°21'511.3
2019-Jun-12 01:30N 41°53' E 008°17'611.8
2019-Jun-12 01:00N 41°57' E 008°12'611.8
2019-Jun-12 00:30N 42°02' E 008°07'611.7
2019-Jun-12 00:00N 42°07' E 008°03'611.8
2019-Jun-11 23:30N 42°11' E 007°58'611.9
2019-Jun-11 23:00N 42°16' E 007°53'612.0
2019-Jun-11 22:30N 42°21' E 007°48'611.9
2019-Jun-11 22:00N 42°25' E 007°43'611.9
2019-Jun-11 21:30N 42°30' E 007°38'611.9
2019-Jun-11 21:00N 42°35' E 007°33'612.2
2019-Jun-11 20:30N 42°40' E 007°28'611.9
2019-Jun-11 20:00N 42°44' E 007°23'611.8
2019-Jun-11 19:30N 42°49' E 007°18'611.5
2019-Jun-11 19:00N 42°54' E 007°14'611.6
2019-Jun-11 18:30N 42°58' E 007°09'611.7
2019-Jun-11 18:00N 43°03' E 007°04'611.0
2019-Jun-11 17:30N 43°07' E 006°59'511.0
2019-Jun-11 17:00N 43°11' E 006°54'611.2
2019-Jun-11 16:30N 43°15' E 006°48'610.3
2019-Jun-11 15:55N 43°17' E 006°41'2 0.7
2019-Jun-11 13:23N 43°17' E 006°38'0 0.0
2019-Jun-11 12:59N 43°17' E 006°38'0 0.1
2019-Jun-11 12:29N 43°17' E 006°38'0 0.1
2019-Jun-11 11:56N 43°17' E 006°38'0 0.0
2019-Jun-11 11:29N 43°17' E 006°38'0 0.0
2019-Jun-11 10:59N 43°17' E 006°38'0 0.0
2019-Jun-11 10:29N 43°17' E 006°38'0 0.0
2019-Jun-11 09:59N 43°17' E 006°38'0 0.0
2019-Jun-11 09:29N 43°17' E 006°38'0 0.0
2019-Jun-11 08:59N 43°17' E 006°38'0 0.0
2019-Jun-11 08:29N 43°17' E 006°38'0 0.0
2019-Jun-11 07:59N 43°17' E 006°38'0 0.0
2019-Jun-11 07:29N 43°17' E 006°38'0 0.0
2019-Jun-11 06:59N 43°17' E 006°38'2 0.2
2019-Jun-10 20:22N 43°18' E 006°41'4 9.4
2019-Jun-10 19:57N 43°19' E 006°47'4 9.8
2019-Jun-10 19:30N 43°20' E 006°52'510.1
2019-Jun-10 19:00N 43°21' E 006°59'510.0
2019-Jun-10 18:30N 43°22' E 007°06'510.3
2019-Jun-10 18:00N 43°27' E 007°10'5 9.7
2019-Jun-10 17:30N 43°31' E 007°14'5 9.7
2019-Jun-10 17:00N 43°35' E 007°16'612.1
2019-Jun-10 16:30N 43°41' E 007°17'1 1.2
2019-Jun-10 16:00N 43°42' E 007°17'0 0.0
2019-Jun-10 15:30N 43°42' E 007°17'0 0.0
2019-Jun-10 15:00N 43°42' E 007°17'0 0.0
2019-Jun-10 14:30N 43°42' E 007°17'0 0.0
2019-Jun-10 14:00N 43°42' E 007°17'0 0.0
2019-Jun-10 13:30N 43°42' E 007°17'0 0.0
2019-Jun-10 13:00N 43°42' E 007°17'0 0.0
2019-Jun-10 12:30N 43°42' E 007°17'0 0.0
2019-Jun-10 12:00N 43°42' E 007°17'0 0.0
2019-Jun-10 11:30N 43°42' E 007°17'0 0.0
2019-Jun-10 11:00N 43°42' E 007°17'0 0.0
2019-Jun-10 10:30N 43°42' E 007°17'0 0.0
2019-Jun-10 10:00N 43°42' E 007°17'0 0.0
2019-Jun-10 09:30N 43°42' E 007°17'0 0.0
2019-Jun-10 09:00N 43°42' E 007°17'0 0.0
2019-Jun-10 08:30N 43°42' E 007°17'0 0.0
2019-Jun-10 08:00N 43°42' E 007°17'0 0.0
2019-Jun-10 07:30N 43°42' E 007°17'0 0.0
2019-Jun-10 07:00N 43°42' E 007°17'0 0.0
2019-Jun-10 06:30N 43°42' E 007°17'0 0.0
2019-Jun-10 06:00N 43°42' E 007°17'0 0.0
2019-Jun-10 05:30N 43°42' E 007°17'0 0.0
2019-Jun-10 05:01N 43°42' E 007°17'1 2.7
2019-Jun-10 04:31N 43°40' E 007°17'4 8.1
2019-Jun-10 04:01N 43°39' E 007°23'510.1
2019-Jun-10 03:31N 43°39' E 007°30'510.4
2019-Jun-10 03:01N 43°39' E 007°37'510.5
2019-Jun-10 02:31N 43°39' E 007°44'510.4
2019-Jun-10 02:00N 43°39' E 007°51'510.2
2019-Jun-10 01:30N 43°39' E 007°59'510.1
2019-Jun-10 01:00N 43°39' E 008°06'510.8
2019-Jun-10 00:30N 43°39' E 008°13'611.1
2019-Jun-10 00:00N 43°38' E 008°21'611.2
2019-Jun-09 23:30N 43°38' E 008°28'510.9
2019-Jun-09 23:00N 43°38' E 008°36'510.6
2019-Jun-09 22:30N 43°39' E 008°43'4 8.4
2019-Jun-09 22:00N 43°42' E 008°45'510.4
2019-Jun-09 21:30N 43°48' E 008°45'510.5
2019-Jun-09 21:01N 43°53' E 008°46'510.4
2019-Jun-09 20:31N 43°58' E 008°46'4 8.6
2019-Jun-09 20:00N 44°02' E 008°49'5 9.6
2019-Jun-09 19:30N 44°05' E 008°54'5 9.2
2019-Jun-09 19:01N 44°07' E 008°59'4 8.9
2019-Jun-09 18:31N 44°10' E 009°04'4 8.9
2019-Jun-09 18:00N 44°13' E 009°09'5 9.3
2019-Jun-09 17:31N 44°15' E 009°14'3 4.8
2019-Jun-09 16:52N 44°18' E 009°14'0 0.0
2019-Jun-09 16:28N 44°18' E 009°14'0 0.0
2019-Jun-09 15:52N 44°18' E 009°14'0 0.1
2019-Jun-09 15:28N 44°18' E 009°14'0 0.0
2019-Jun-09 14:52N 44°18' E 009°14'0 0.0
2019-Jun-09 13:55N 44°18' E 009°14'0 0.0
2019-Jun-09 13:25N 44°18' E 009°14'0 0.0
2019-Jun-09 12:37N 44°18' E 009°14'0 0.2
2019-Jun-09 12:28N 44°18' E 009°14'0 0.0
2019-Jun-09 11:58N 44°18' E 009°14'0 0.1
2019-Jun-09 11:28N 44°18' E 009°14'0 0.1
2019-Jun-09 10:58N 44°18' E 009°14'0 0.0
2019-Jun-09 10:28N 44°18' E 009°14'0 0.1
2019-Jun-09 09:58N 44°18' E 009°14'0 0.2
2019-Jun-09 09:28N 44°18' E 009°14'0 0.0
2019-Jun-09 08:55N 44°18' E 009°14'0 0.2
2019-Jun-09 08:28N 44°18' E 009°14'0 0.1
2019-Jun-09 07:58N 44°18' E 009°14'0 0.2
2019-Jun-09 07:28N 44°18' E 009°14'0 0.0
2019-Jun-09 06:58N 44°18' E 009°14'0 0.1
2019-Jun-09 06:25N 44°18' E 009°14'0 0.0
2019-Jun-09 06:00N 44°18' E 009°14'2 3.1
2019-Jun-09 05:20N 44°17' E 009°16'2 7.7
2019-Jun-09 05:00N 44°15' E 009°17'8 8.3
2019-Jun-09 04:00N 44°06' E 009°15'4 8.5
2019-Jun-09 03:30N 44°02' E 009°15'4 8.2
2019-Jun-09 03:00N 43°58' E 009°14'4 8.2
2019-Jun-09 02:30N 43°54' E 009°13'4 8.2
2019-Jun-09 02:00N 43°50' E 009°12'4 8.1
2019-Jun-09 01:30N 43°46' E 009°11'4 8.1
2019-Jun-09 01:00N 43°42' E 009°10'4 8.1
2019-Jun-09 00:30N 43°38' E 009°10'4 8.3
2019-Jun-09 00:00N 43°34' E 009°09'4 8.3
2019-Jun-08 23:30N 43°30' E 009°09'4 8.3
2019-Jun-08 23:00N 43°26' E 009°08'4 8.4
2019-Jun-08 22:30N 43°22' E 009°06'4 8.5
2019-Jun-08 22:00N 43°17' E 009°06'4 8.4
2019-Jun-08 21:30N 43°13' E 009°05'4 8.4
2019-Jun-08 21:00N 43°09' E 009°05'4 8.3
2019-Jun-08 20:30N 43°05' E 009°05'4 8.3
2019-Jun-08 20:00N 43°01' E 009°04'4 8.2
2019-Jun-08 19:30N 42°57' E 009°03'4 8.2
2019-Jun-08 19:00N 42°53' E 009°02'4 8.0
2019-Jun-08 18:30N 42°49' E 009°01'4 7.9
2019-Jun-08 18:00N 42°45' E 008°59'4 7.9
2019-Jun-08 17:30N 42°41' E 008°58'3 4.9
2019-Jun-08 16:59N 42°39' E 008°57'0 0.0
2019-Jun-08 16:29N 42°39' E 008°57'0 0.0
2019-Jun-08 15:59N 42°39' E 008°57'0 0.0
2019-Jun-08 15:29N 42°39' E 008°57'0 0.0
2019-Jun-08 14:59N 42°39' E 008°57'0 0.0
2019-Jun-08 14:29N 42°39' E 008°57'0 0.0
2019-Jun-08 13:59N 42°39' E 008°57'0 0.0
2019-Jun-08 13:29N 42°39' E 008°57'0 0.0
2019-Jun-08 12:56N 42°39' E 008°57'0 0.0
2019-Jun-08 12:29N 42°39' E 008°57'0 0.1
2019-Jun-08 11:59N 42°39' E 008°57'0 0.0
2019-Jun-08 11:26N 42°39' E 008°57'0 0.0
2019-Jun-08 10:59N 42°39' E 008°57'0 0.0
2019-Jun-08 10:29N 42°39' E 008°57'0 0.0
2019-Jun-08 09:53N 42°39' E 008°57'0 0.0
2019-Jun-08 09:23N 42°39' E 008°57'0 0.0
2019-Jun-08 08:44N 42°39' E 008°57'0 0.0
2019-Jun-08 08:29N 42°39' E 008°57'0 0.0
2019-Jun-08 07:50N 42°39' E 008°57'0 0.0
2019-Jun-08 07:29N 42°39' E 008°57'0 0.0
2019-Jun-08 06:41N 42°39' E 008°57'0 0.1
2019-Jun-08 06:29N 42°39' E 008°57'0 0.0
2019-Jun-08 06:00N 42°39' E 008°57'2 3.8
2019-Jun-08 05:29N 42°40' E 008°55'4 8.0
2019-Jun-08 05:00N 42°43' E 008°51'4 7.8
2019-Jun-08 04:30N 42°45' E 008°47'4 8.4
2019-Jun-08 03:59N 42°48' E 008°43'4 7.8
2019-Jun-08 03:25N 42°51' E 008°38'3 7.6
2019-Jun-08 03:00N 42°53' E 008°35'4 7.6
2019-Jun-08 02:30N 42°55' E 008°31'6 7.7
2019-Jun-08 01:40N 42°59' E 008°24'3 8.4
2019-Jun-08 01:16N 43°01' E 008°20'5 8.3
2019-Jun-08 00:41N 43°04' E 008°15'2 8.2
2019-Jun-08 00:29N 43°05' E 008°13'4 8.3
2019-Jun-08 00:00N 43°08' E 008°09'4 8.4
2019-Jun-07 23:30N 43°10' E 008°05'4 8.5
2019-Jun-07 23:00N 43°13' E 007°60'6 8.5
2019-Jun-07 22:18N 43°17' E 007°53'3 8.5
2019-Jun-07 21:57N 43°18' E 007°50'4 8.3
2019-Jun-07 21:30N 43°20' E 007°46'4 8.3
2019-Jun-07 21:00N 43°23' E 007°41'4 8.2
2019-Jun-07 20:30N 43°25' E 007°36'4 8.1
2019-Jun-07 20:00N 43°27' E 007°32'4 8.2
2019-Jun-07 19:30N 43°30' E 007°27'4 8.2
2019-Jun-07 19:00N 43°32' E 007°23'4 7.7
2019-Jun-07 18:30N 43°35' E 007°20'611.4
2019-Jun-07 18:01N 43°41' E 007°17'1 1.8
2019-Jun-07 17:29N 43°42' E 007°17'0 0.0
2019-Jun-07 16:59N 43°42' E 007°17'0 0.0
2019-Jun-07 16:29N 43°42' E 007°17'0 0.0
2019-Jun-07 15:59N 43°42' E 007°17'0 0.0
2019-Jun-07 15:29N 43°42' E 007°17'0 0.0
2019-Jun-07 14:59N 43°42' E 007°17'0 0.0
2019-Jun-07 14:29N 43°42' E 007°17'0 0.0
2019-Jun-07 13:56N 43°42' E 007°17'0 0.0
2019-Jun-07 13:29N 43°42' E 007°17'0 0.0
2019-Jun-07 12:59N 43°42' E 007°17'0 0.0
2019-Jun-07 12:29N 43°42' E 007°17'0 0.0
2019-Jun-07 11:56N 43°42' E 007°17'0 0.0
2019-Jun-07 11:29N 43°42' E 007°17'0 0.0
2019-Jun-07 10:59N 43°42' E 007°17'0 0.0
2019-Jun-07 10:26N 43°42' E 007°17'0 0.0
2019-Jun-07 09:59N 43°42' E 007°17'0 0.0
2019-Jun-07 09:29N 43°42' E 007°17'0 0.0
2019-Jun-07 08:56N 43°42' E 007°17'0 0.0
2019-Jun-07 08:29N 43°42' E 007°17'0 0.0
2019-Jun-07 07:59N 43°42' E 007°17'0 0.0
2019-Jun-07 07:29N 43°42' E 007°17'0 0.0
2019-Jun-07 06:59N 43°42' E 007°17'0 0.0
2019-Jun-07 06:29N 43°42' E 007°17'0 0.0
2019-Jun-07 06:00N 43°42' E 007°17'0 0.8
2019-Jun-07 05:30N 43°41' E 007°17'3 5.4
2019-Jun-07 05:00N 43°39' E 007°20'4 8.8
2019-Jun-07 04:30N 43°39' E 007°26'4 8.1
2019-Jun-07 04:00N 43°39' E 007°32'4 8.3
2019-Jun-07 03:30N 43°39' E 007°37'4 8.3
2019-Jun-07 03:00N 43°39' E 007°43'4 8.2
2019-Jun-07 02:30N 43°39' E 007°49'4 8.0
2019-Jun-07 02:00N 43°39' E 007°54'4 7.8
2019-Jun-07 01:30N 43°39' E 007°60'4 7.8
2019-Jun-07 01:00N 43°39' E 008°05'4 7.7
2019-Jun-07 00:30N 43°42' E 008°09'4 7.8
2019-Jun-07 00:00N 43°44' E 008°14'4 7.9
2019-Jun-06 23:30N 43°46' E 008°18'4 7.8
2019-Jun-06 23:00N 43°48' E 008°23'4 7.7
2019-Jun-06 22:30N 43°51' E 008°27'4 8.0
2019-Jun-06 22:00N 43°53' E 008°31'4 8.1
2019-Jun-06 21:30N 43°55' E 008°36'4 7.9
2019-Jun-06 21:00N 43°57' E 008°41'4 7.9
2019-Jun-06 20:30N 43°60' E 008°45'4 7.9
2019-Jun-06 20:00N 44°02' E 008°49'4 7.8
2019-Jun-06 19:30N 44°04' E 008°54'4 8.0
2019-Jun-06 19:00N 44°07' E 008°58'4 8.1
2019-Jun-06 18:30N 44°09' E 009°03'4 8.1
2019-Jun-06 18:00N 44°12' E 009°07'4 8.3
2019-Jun-06 17:30N 44°14' E 009°12'4 8.7
2019-Jun-06 17:00N 44°18' E 009°14'0 0.1
2019-Jun-06 16:22N 44°18' E 009°14'0 0.0
2019-Jun-06 15:49N 44°18' E 009°14'0 0.1
2019-Jun-06 15:13N 44°18' E 009°14'0 0.0
2019-Jun-06 14:58N 44°18' E 009°14'0 0.0
2019-Jun-06 14:28N 44°18' E 009°14'0 0.0
2019-Jun-06 13:55N 44°18' E 009°14'0 0.0
2019-Jun-06 13:22N 44°18' E 009°14'0 0.0
2019-Jun-06 12:55N 44°18' E 009°14'0 0.0
2019-Jun-06 12:28N 44°18' E 009°14'0 0.0
2019-Jun-06 11:58N 44°18' E 009°14'0 0.0
2019-Jun-06 11:19N 44°18' E 009°14'0 0.0
2019-Jun-06 10:52N 44°18' E 009°14'0 0.0
2019-Jun-06 10:28N 44°18' E 009°14'0 0.0
2019-Jun-06 09:43N 44°18' E 009°14'0 0.1
2019-Jun-06 09:19N 44°18' E 009°14'0 0.1
2019-Jun-06 08:49N 44°18' E 009°14'0 0.1
2019-Jun-06 08:28N 44°18' E 009°14'0 0.0
2019-Jun-06 07:58N 44°18' E 009°14'0 0.1
2019-Jun-06 07:28N 44°18' E 009°14'0 0.0
2019-Jun-06 07:01N 44°18' E 009°14'2 3.1
2019-Jun-06 06:18N 44°17' E 009°16'2 7.0
2019-Jun-06 06:00N 44°15' E 009°17'3 6.9
2019-Jun-06 05:30N 44°12' E 009°19'4 7.1
2019-Jun-06 05:00N 44°09' E 009°21'4 7.3
2019-Jun-06 04:30N 44°05' E 009°23'4 7.4
2019-Jun-06 04:00N 44°02' E 009°25'4 7.2
2019-Jun-06 03:30N 43°58' E 009°27'4 7.5
2019-Jun-06 03:00N 43°55' E 009°29'4 8.1
2019-Jun-06 02:30N 43°51' E 009°31'4 7.9
2019-Jun-06 02:00N 43°47' E 009°33'4 7.6
2019-Jun-06 01:30N 43°44' E 009°35'  
Track history (hours):
 
Tides and Currents Weather Stations Pressure Air Temp Water Temp Dewpoint Dewpoint Depression Visibility Wind Speed Wind Dir Waves Ship Positions

Club Med II

Operator: V.Ships Leisure S.A.M

Last reported at 2019-Jun-16 01:01 UTC. Time now 2019-Jun-16 01:19 UTC.
Position N 43°09' E 009°53'.

Length 187 m; draft 5.4 m.

Type: Ship. MMSI: 227194000.

Date/timePositionNaut miles runAvg speedWind from/ knotsBaromVisibWave heightAir tempDewpointWater temp
2019-Jun-16 01:01N 43°09' E 009°53'4 7.6
2019-Jun-16 00:30N 43°09' E 009°47'4 8.1
2019-Jun-16 00:01N 43°09' E 009°42'4 8.0
2019-Jun-15 23:30N 43°09' E 009°36'4 7.8
2019-Jun-15 23:00N 43°08' E 009°31'4 7.6
2019-Jun-15 22:31N 43°08' E 009°26'4 7.6
2019-Jun-15 22:00N 43°08' E 009°21'4 7.1
2019-Jun-15 21:30N 43°08' E 009°16'4 7.1
2019-Jun-15 21:01N 43°04' E 009°14'4 7.6
2019-Jun-15 20:31N 43°01' E 009°12'4 7.6
2019-Jun-15 20:01N 42°58' E 009°09'4 7.5
2019-Jun-15 19:31N 42°54' E 009°07'4 7.5
2019-Jun-15 19:00N 42°51' E 009°05'4 7.3
2019-Jun-15 18:28N 42°47' E 009°03'4 7.5
2019-Jun-15 18:00N 42°44' E 009°01'3 7.0
2019-Jun-15 17:30N 42°41' E 008°58'3 5.3
2019-Jun-15 17:01N 42°39' E 008°57'0 0.0
2019-Jun-15 16:26N 42°39' E 008°57'0 0.0
2019-Jun-15 15:59N 42°39' E 008°57'0 0.0
2019-Jun-15 15:29N 42°39' E 008°57'0 0.0
2019-Jun-15 14:59N 42°39' E 008°57'0 0.0
2019-Jun-15 14:26N 42°39' E 008°57'0 0.0
2019-Jun-15 13:59N 42°39' E 008°57'0 0.0
2019-Jun-15 13:26N 42°39' E 008°57'0 0.1
2019-Jun-15 12:59N 42°39' E 008°57'0 0.1
2019-Jun-15 12:29N 42°39' E 008°57'0 0.1
2019-Jun-15 11:56N 42°39' E 008°57'0 0.0
2019-Jun-15 11:17N 42°39' E 008°57'0 0.1
2019-Jun-15 10:59N 42°39' E 008°57'0 0.1
2019-Jun-15 10:29N 42°39' E 008°57'0 0.0
2019-Jun-15 09:44N 42°39' E 008°57'0 0.1
2019-Jun-15 09:29N 42°39' E 008°57'0 0.0
2019-Jun-15 08:47N 42°39' E 008°57'0 0.0
2019-Jun-15 08:29N 42°39' E 008°57'0 0.0
2019-Jun-15 07:56N 42°39' E 008°57'0 0.1
2019-Jun-15 07:29N 42°39' E 008°57'0 0.1
2019-Jun-15 06:59N 42°39' E 008°57'0 0.0
2019-Jun-15 06:13N 42°39' E 008°57'0 0.1
2019-Jun-15 06:00N 42°39' E 008°57'4 4.8
2019-Jun-15 05:13N 42°41' E 008°53'2 8.5
2019-Jun-15 05:00N 42°43' E 008°51'5 8.2
2019-Jun-15 04:25N 42°46' E 008°47'4 8.0
2019-Jun-15 03:52N 42°48' E 008°42'4 8.8
2019-Jun-15 03:28N 42°51' E 008°38'6 8.8
2019-Jun-15 02:50N 42°54' E 008°32'8 8.7
2019-Jun-15 01:56N 42°59' E 008°24'4 8.9
2019-Jun-15 01:29N 43°01' E 008°19'14 8.7
2019-Jun-14 23:55N 43°10' E 008°05'4 9.3
2019-Jun-14 23:30N 43°12' E 008°01'5 9.5
2019-Jun-14 23:00N 43°15' E 007°56'5 9.3
2019-Jun-14 22:31N 43°18' E 007°51'5 9.2
2019-Jun-14 22:01N 43°21' E 007°46'5 9.2
2019-Jun-14 21:31N 43°24' E 007°41'5 9.2
2019-Jun-14 21:01N 43°27' E 007°36'5 9.4
2019-Jun-14 20:31N 43°30' E 007°31'5 9.3
2019-Jun-14 20:01N 43°33' E 007°26'4 9.0
2019-Jun-14 19:30N 43°35' E 007°21'4 8.3
2019-Jun-14 19:01N 43°39' E 007°18'3 5.2
2019-Jun-14 18:27N 43°42' E 007°17'0 0.0
2019-Jun-14 18:00N 43°42' E 007°17'0 0.0
2019-Jun-14 17:30N 43°42' E 007°17'0 0.0
2019-Jun-14 17:00N 43°42' E 007°17'0 0.0
2019-Jun-14 16:30N 43°42' E 007°17'0 0.0
2019-Jun-14 16:00N 43°42' E 007°17'0 0.0
2019-Jun-14 15:30N 43°42' E 007°17'0 0.0
2019-Jun-14 15:00N 43°42' E 007°17'0 0.0
2019-Jun-14 14:30N 43°42' E 007°17'0 0.0
2019-Jun-14 14:00N 43°42' E 007°17'0 0.0
2019-Jun-14 13:30N 43°42' E 007°17'0 0.0
2019-Jun-14 13:00N 43°42' E 007°17'0 0.0
2019-Jun-14 12:30N 43°42' E 007°17'0 0.0
2019-Jun-14 12:00N 43°42' E 007°17'0 0.0
2019-Jun-14 11:30N 43°42' E 007°17'0 0.0
2019-Jun-14 11:00N 43°42' E 007°17'0 0.0
2019-Jun-14 10:30N 43°42' E 007°17'0 0.0
2019-Jun-14 10:00N 43°42' E 007°17'0 0.0
2019-Jun-14 09:30N 43°42' E 007°17'0 0.0
2019-Jun-14 09:00N 43°42' E 007°17'0 0.0
2019-Jun-14 08:30N 43°42' E 007°17'0 0.0
2019-Jun-14 08:00N 43°42' E 007°17'0 0.0
2019-Jun-14 07:30N 43°42' E 007°17'0 0.0
2019-Jun-14 07:00N 43°42' E 007°17'0 0.0
2019-Jun-14 06:30N 43°42' E 007°17'0 0.0
2019-Jun-14 06:00N 43°42' E 007°17'0 0.7
2019-Jun-14 05:30N 43°41' E 007°17'3 6.6
2019-Jun-14 05:00N 43°39' E 007°21'611.5
2019-Jun-14 04:31N 43°37' E 007°28'713.3
2019-Jun-14 04:00N 43°35' E 007°37'713.2
2019-Jun-14 03:30N 43°33' E 007°46'613.1
2019-Jun-14 03:01N 43°31' E 007°54'713.1
2019-Jun-14 02:30N 43°29' E 008°03'713.0
2019-Jun-14 02:00N 43°27' E 008°11'713.1
2019-Jun-14 01:30N 43°25' E 008°20'713.2
2019-Jun-14 01:00N 43°23' E 008°28'713.1
2019-Jun-14 00:30N 43°21' E 008°37'713.0
2019-Jun-14 00:00N 43°19' E 008°45'612.7
2019-Jun-13 23:31N 43°17' E 008°54'612.7
2019-Jun-13 23:00N 43°15' E 009°02'714.4
2019-Jun-13 22:30N 43°13' E 009°12'714.6
2019-Jun-13 22:00N 43°11' E 009°21'714.5
2019-Jun-13 21:31N 43°08' E 009°30'713.5
2019-Jun-13 21:00N 43°04' E 009°38'714.3
2019-Jun-13 20:30N 42°57' E 009°41'611.6
2019-Jun-13 20:00N 42°54' E 009°47'713.9
2019-Jun-13 19:30N 42°54' E 009°57'714.2
2019-Jun-13 19:01N 42°54' E 010°07'714.0
2019-Jun-13 18:30N 42°53' E 010°16'611.0
2019-Jun-13 18:00N 42°49' E 010°20'0 0.2
2019-Jun-13 17:30N 42°48' E 010°20'0 0.0
2019-Jun-13 16:54N 42°48' E 010°20'0 0.0
2019-Jun-13 16:30N 42°48' E 010°20'0 0.0
2019-Jun-13 16:00N 42°48' E 010°20'0 0.0
2019-Jun-13 15:21N 42°48' E 010°20'0 0.0
2019-Jun-13 14:24N 42°48' E 010°20'0 0.0
2019-Jun-13 13:03N 42°48' E 010°20'0 0.0
2019-Jun-13 13:00N 42°48' E 010°20'0 0.0
2019-Jun-13 12:30N 42°48' E 010°20'0 0.0
2019-Jun-13 12:00N 42°48' E 010°20'0 0.0
2019-Jun-13 11:30N 42°48' E 010°20'0 0.0
2019-Jun-13 10:57N 42°48' E 010°20'0 0.0
2019-Jun-13 10:27N 42°48' E 010°20'0 0.0
2019-Jun-13 09:57N 42°48' E 010°20'0 0.0
2019-Jun-13 09:24N 42°48' E 010°20'0 0.0
2019-Jun-13 09:00N 42°48' E 010°20'0 0.0
2019-Jun-13 08:21N 42°48' E 010°20'0 0.0
2019-Jun-13 08:00N 42°48' E 010°20'0 0.0
2019-Jun-13 07:30N 42°48' E 010°20'0 0.0
2019-Jun-13 07:00N 42°48' E 010°20'0 0.0
2019-Jun-13 06:30N 42°49' E 010°20'1 2.9
2019-Jun-13 06:00N 42°50' E 010°21'3 6.7
2019-Jun-13 05:30N 42°53' E 010°18'4 7.9
2019-Jun-13 05:00N 42°53' E 010°12'3 6.9
2019-Jun-13 04:30N 42°53' E 010°08'4 7.9
2019-Jun-13 03:59N 42°53' E 010°02'4 8.0
2019-Jun-13 03:29N 42°51' E 009°57'4 8.1
2019-Jun-13 03:00N 42°48' E 009°55'4 8.0
2019-Jun-13 02:30N 42°44' E 009°53'4 7.9
2019-Jun-13 02:00N 42°40' E 009°51'5 8.3
2019-Jun-13 01:23N 42°35' E 009°49'3 8.4
2019-Jun-13 01:00N 42°32' E 009°47'4 7.6
2019-Jun-13 00:30N 42°29' E 009°46'4 7.4
2019-Jun-13 00:00N 42°25' E 009°46'72 3.8
2019-Jun-12 05:09N 41°24' E 008°54'1910.7
2019-Jun-12 03:23N 41°35' E 008°34'511.5
2019-Jun-12 02:57N 41°39' E 008°30'1211.4
2019-Jun-12 01:56N 41°49' E 008°21'511.3
2019-Jun-12 01:30N 41°53' E 008°17'611.8
2019-Jun-12 01:00N 41°57' E 008°12'611.8
2019-Jun-12 00:30N 42°02' E 008°07'611.7
2019-Jun-12 00:00N 42°07' E 008°03'611.8
2019-Jun-11 23:30N 42°11' E 007°58'611.9
2019-Jun-11 23:00N 42°16' E 007°53'612.0
2019-Jun-11 22:30N 42°21' E 007°48'611.9
2019-Jun-11 22:00N 42°25' E 007°43'611.9
2019-Jun-11 21:30N 42°30' E 007°38'611.9
2019-Jun-11 21:00N 42°35' E 007°33'612.2
2019-Jun-11 20:30N 42°40' E 007°28'611.9
2019-Jun-11 20:00N 42°44' E 007°23'611.8
2019-Jun-11 19:30N 42°49' E 007°18'611.5
2019-Jun-11 19:00N 42°54' E 007°14'611.6
2019-Jun-11 18:30N 42°58' E 007°09'611.7
2019-Jun-11 18:00N 43°03' E 007°04'611.0
2019-Jun-11 17:30N 43°07' E 006°59'511.0
2019-Jun-11 17:00N 43°11' E 006°54'611.2
2019-Jun-11 16:30N 43°15' E 006°48'610.3
2019-Jun-11 15:55N 43°17' E 006°41'2 0.7
2019-Jun-11 13:23N 43°17' E 006°38'0 0.0
2019-Jun-11 12:59N 43°17' E 006°38'0 0.1
2019-Jun-11 12:29N 43°17' E 006°38'0 0.1
2019-Jun-11 11:56N 43°17' E 006°38'0 0.0
2019-Jun-11 11:29N 43°17' E 006°38'0 0.0
2019-Jun-11 10:59N 43°17' E 006°38'0 0.0
2019-Jun-11 10:29N 43°17' E 006°38'0 0.0
2019-Jun-11 09:59N 43°17' E 006°38'0 0.0
2019-Jun-11 09:29N 43°17' E 006°38'0 0.0
2019-Jun-11 08:59N 43°17' E 006°38'0 0.0
2019-Jun-11 08:29N 43°17' E 006°38'0 0.0
2019-Jun-11 07:59N 43°17' E 006°38'0 0.0
2019-Jun-11 07:29N 43°17' E 006°38'0 0.0
2019-Jun-11 06:59N 43°17' E 006°38'2 0.2
2019-Jun-10 20:22N 43°18' E 006°41'4 9.4
2019-Jun-10 19:57N 43°19' E 006°47'4 9.8
2019-Jun-10 19:30N 43°20' E 006°52'510.1
2019-Jun-10 19:00N 43°21' E 006°59'510.0
2019-Jun-10 18:30N 43°22' E 007°06'510.3
2019-Jun-10 18:00N 43°27' E 007°10'5 9.7
2019-Jun-10 17:30N 43°31' E 007°14'5 9.7
2019-Jun-10 17:00N 43°35' E 007°16'612.1
2019-Jun-10 16:30N 43°41' E 007°17'1 1.2
2019-Jun-10 16:00N 43°42' E 007°17'0 0.0
2019-Jun-10 15:30N 43°42' E 007°17'0 0.0
2019-Jun-10 15:00N 43°42' E 007°17'0 0.0
2019-Jun-10 14:30N 43°42' E 007°17'0 0.0
2019-Jun-10 14:00N 43°42' E 007°17'0 0.0
2019-Jun-10 13:30N 43°42' E 007°17'0 0.0
2019-Jun-10 13:00N 43°42' E 007°17'0 0.0
2019-Jun-10 12:30N 43°42' E 007°17'0 0.0
2019-Jun-10 12:00N 43°42' E 007°17'0 0.0
2019-Jun-10 11:30N 43°42' E 007°17'0 0.0
2019-Jun-10 11:00N 43°42' E 007°17'0 0.0
2019-Jun-10 10:30N 43°42' E 007°17'0 0.0
2019-Jun-10 10:00N 43°42' E 007°17'0 0.0
2019-Jun-10 09:30N 43°42' E 007°17'0 0.0
2019-Jun-10 09:00N 43°42' E 007°17'0 0.0
2019-Jun-10 08:30N 43°42' E 007°17'0 0.0
2019-Jun-10 08:00N 43°42' E 007°17'0 0.0
2019-Jun-10 07:30N 43°42' E 007°17'0 0.0
2019-Jun-10 07:00N 43°42' E 007°17'0 0.0
2019-Jun-10 06:30N 43°42' E 007°17'0 0.0
2019-Jun-10 06:00N 43°42' E 007°17'0 0.0
2019-Jun-10 05:30N 43°42' E 007°17'0 0.0
2019-Jun-10 05:01N 43°42' E 007°17'1 2.7
2019-Jun-10 04:31N 43°40' E 007°17'4 8.1
2019-Jun-10 04:01N 43°39' E 007°23'510.1
2019-Jun-10 03:31N 43°39' E 007°30'510.4
2019-Jun-10 03:01N 43°39' E 007°37'510.5
2019-Jun-10 02:31N 43°39' E 007°44'510.4
2019-Jun-10 02:00N 43°39' E 007°51'510.2
2019-Jun-10 01:30N 43°39' E 007°59'510.1
2019-Jun-10 01:00N 43°39' E 008°06'510.8
2019-Jun-10 00:30N 43°39' E 008°13'611.1
2019-Jun-10 00:00N 43°38' E 008°21'611.2
2019-Jun-09 23:30N 43°38' E 008°28'510.9
2019-Jun-09 23:00N 43°38' E 008°36'510.6
2019-Jun-09 22:30N 43°39' E 008°43'4 8.4
2019-Jun-09 22:00N 43°42' E 008°45'510.4
2019-Jun-09 21:30N 43°48' E 008°45'510.5
2019-Jun-09 21:01N 43°53' E 008°46'510.4
2019-Jun-09 20:31N 43°58' E 008°46'4 8.6
2019-Jun-09 20:00N 44°02' E 008°49'5 9.6
2019-Jun-09 19:30N 44°05' E 008°54'5 9.2
2019-Jun-09 19:01N 44°07' E 008°59'4 8.9
2019-Jun-09 18:31N 44°10' E 009°04'4 8.9
2019-Jun-09 18:00N 44°13' E 009°09'5 9.3
2019-Jun-09 17:31N 44°15' E 009°14'3 4.8
2019-Jun-09 16:52N 44°18' E 009°14'0 0.0
2019-Jun-09 16:28N 44°18' E 009°14'0 0.0
2019-Jun-09 15:52N 44°18' E 009°14'0 0.1
2019-Jun-09 15:28N 44°18' E 009°14'0 0.0
2019-Jun-09 14:52N 44°18' E 009°14'0 0.0
2019-Jun-09 13:55N 44°18' E 009°14'0 0.0
2019-Jun-09 13:25N 44°18' E 009°14'0 0.0
2019-Jun-09 12:37N 44°18' E 009°14'0 0.2
2019-Jun-09 12:28N 44°18' E 009°14'0 0.0
2019-Jun-09 11:58N 44°18' E 009°14'0 0.1
2019-Jun-09 11:28N 44°18' E 009°14'0 0.1
2019-Jun-09 10:58N 44°18' E 009°14'0 0.0
2019-Jun-09 10:28N 44°18' E 009°14'0 0.1
2019-Jun-09 09:58N 44°18' E 009°14'0 0.2
2019-Jun-09 09:28N 44°18' E 009°14'0 0.0
2019-Jun-09 08:55N 44°18' E 009°14'0 0.2
2019-Jun-09 08:28N 44°18' E 009°14'0 0.1
2019-Jun-09 07:58N 44°18' E 009°14'0 0.2
2019-Jun-09 07:28N 44°18' E 009°14'0 0.0
2019-Jun-09 06:58N 44°18' E 009°14'0 0.1
2019-Jun-09 06:25N 44°18' E 009°14'0 0.0
2019-Jun-09 06:00N 44°18' E 009°14'2 3.1
2019-Jun-09 05:20N 44°17' E 009°16'2 7.7
2019-Jun-09 05:00N 44°15' E 009°17'8 8.3
2019-Jun-09 04:00N 44°06' E 009°15'4 8.5
2019-Jun-09 03:30N 44°02' E 009°15'4 8.2
2019-Jun-09 03:00N 43°58' E 009°14'4 8.2
2019-Jun-09 02:30N 43°54' E 009°13'4 8.2
2019-Jun-09 02:00N 43°50' E 009°12'4 8.1
2019-Jun-09 01:30N 43°46' E 009°11'4 8.1
2019-Jun-09 01:00N 43°42' E 009°10'4 8.1
2019-Jun-09 00:30N 43°38' E 009°10'4 8.3
2019-Jun-09 00:00N 43°34' E 009°09'4 8.3
2019-Jun-08 23:30N 43°30' E 009°09'4 8.3
2019-Jun-08 23:00N 43°26' E 009°08'4 8.4
2019-Jun-08 22:30N 43°22' E 009°06'4 8.5
2019-Jun-08 22:00N 43°17' E 009°06'4 8.4
2019-Jun-08 21:30N 43°13' E 009°05'4 8.4
2019-Jun-08 21:00N 43°09' E 009°05'4 8.3
2019-Jun-08 20:30N 43°05' E 009°05'4 8.3
2019-Jun-08 20:00N 43°01' E 009°04'4 8.2
2019-Jun-08 19:30N 42°57' E 009°03'4 8.2
2019-Jun-08 19:00N 42°53' E 009°02'4 8.0
2019-Jun-08 18:30N 42°49' E 009°01'4 7.9
2019-Jun-08 18:00N 42°45' E 008°59'4 7.9
2019-Jun-08 17:30N 42°41' E 008°58'3 4.9
2019-Jun-08 16:59N 42°39' E 008°57'0 0.0
2019-Jun-08 16:29N 42°39' E 008°57'0 0.0
2019-Jun-08 15:59N 42°39' E 008°57'0 0.0
2019-Jun-08 15:29N 42°39' E 008°57'0 0.0
2019-Jun-08 14:59N 42°39' E 008°57'0 0.0
2019-Jun-08 14:29N 42°39' E 008°57'0 0.0
2019-Jun-08 13:59N 42°39' E 008°57'0 0.0
2019-Jun-08 13:29N 42°39' E 008°57'0 0.0
2019-Jun-08 12:56N 42°39' E 008°57'0 0.0
2019-Jun-08 12:29N 42°39' E 008°57'0 0.1
2019-Jun-08 11:59N 42°39' E 008°57'0 0.0
2019-Jun-08 11:26N 42°39' E 008°57'0 0.0
2019-Jun-08 10:59N 42°39' E 008°57'0 0.0
2019-Jun-08 10:29N 42°39' E 008°57'0 0.0
2019-Jun-08 09:53N 42°39' E 008°57'0 0.0
2019-Jun-08 09:23N 42°39' E 008°57'0 0.0
2019-Jun-08 08:44N 42°39' E 008°57'0 0.0
2019-Jun-08 08:29N 42°39' E 008°57'0 0.0
2019-Jun-08 07:50N 42°39' E 008°57'0 0.0
2019-Jun-08 07:29N 42°39' E 008°57'0 0.0
2019-Jun-08 06:41N 42°39' E 008°57'0 0.1
2019-Jun-08 06:29N 42°39' E 008°57'0 0.0
2019-Jun-08 06:00N 42°39' E 008°57'2 3.8
2019-Jun-08 05:29N 42°40' E 008°55'4 8.0
2019-Jun-08 05:00N 42°43' E 008°51'4 7.8
2019-Jun-08 04:30N 42°45' E 008°47'4 8.4
2019-Jun-08 03:59N 42°48' E 008°43'4 7.8
2019-Jun-08 03:25N 42°51' E 008°38'3 7.6
2019-Jun-08 03:00N 42°53' E 008°35'4 7.6
2019-Jun-08 02:30N 42°55' E 008°31'6 7.7
2019-Jun-08 01:40N 42°59' E 008°24'3 8.4
2019-Jun-08 01:16N 43°01' E 008°20'5 8.3
2019-Jun-08 00:41N 43°04' E 008°15'2 8.2
2019-Jun-08 00:29N 43°05' E 008°13'4 8.3
2019-Jun-08 00:00N 43°08' E 008°09'4 8.4
2019-Jun-07 23:30N 43°10' E 008°05'4 8.5
2019-Jun-07 23:00N 43°13' E 007°60'6 8.5
2019-Jun-07 22:18N 43°17' E 007°53'3 8.5
2019-Jun-07 21:57N 43°18' E 007°50'4 8.3
2019-Jun-07 21:30N 43°20' E 007°46'4 8.3
2019-Jun-07 21:00N 43°23' E 007°41'4 8.2
2019-Jun-07 20:30N 43°25' E 007°36'4 8.1
2019-Jun-07 20:00N 43°27' E 007°32'4 8.2
2019-Jun-07 19:30N 43°30' E 007°27'4 8.2
2019-Jun-07 19:00N 43°32' E 007°23'4 7.7
2019-Jun-07 18:30N 43°35' E 007°20'611.4
2019-Jun-07 18:01N 43°41' E 007°17'1 1.8
2019-Jun-07 17:29N 43°42' E 007°17'0 0.0
2019-Jun-07 16:59N 43°42' E 007°17'0 0.0
2019-Jun-07 16:29N 43°42' E 007°17'0 0.0
2019-Jun-07 15:59N 43°42' E 007°17'0 0.0
2019-Jun-07 15:29N 43°42' E 007°17'0 0.0
2019-Jun-07 14:59N 43°42' E 007°17'0 0.0
2019-Jun-07 14:29N 43°42' E 007°17'0 0.0
2019-Jun-07 13:56N 43°42' E 007°17'0 0.0
2019-Jun-07 13:29N 43°42' E 007°17'0 0.0
2019-Jun-07 12:59N 43°42' E 007°17'0 0.0
2019-Jun-07 12:29N 43°42' E 007°17'0 0.0
2019-Jun-07 11:56N 43°42' E 007°17'0 0.0
2019-Jun-07 11:29N 43°42' E 007°17'0 0.0
2019-Jun-07 10:59N 43°42' E 007°17'0 0.0
2019-Jun-07 10:26N 43°42' E 007°17'0 0.0
2019-Jun-07 09:59N 43°42' E 007°17'0 0.0
2019-Jun-07 09:29N 43°42' E 007°17'0 0.0
2019-Jun-07 08:56N 43°42' E 007°17'0 0.0
2019-Jun-07 08:29N 43°42' E 007°17'0 0.0
2019-Jun-07 07:59N 43°42' E 007°17'0 0.0
2019-Jun-07 07:29N 43°42' E 007°17'0 0.0
2019-Jun-07 06:59N 43°42' E 007°17'0 0.0
2019-Jun-07 06:29N 43°42' E 007°17'0 0.0
2019-Jun-07 06:00N 43°42' E 007°17'0 0.8
2019-Jun-07 05:30N 43°41' E 007°17'3 5.4
2019-Jun-07 05:00N 43°39' E 007°20'4 8.8
2019-Jun-07 04:30N 43°39' E 007°26'4 8.1
2019-Jun-07 04:00N 43°39' E 007°32'4 8.3
2019-Jun-07 03:30N 43°39' E 007°37'4 8.3
2019-Jun-07 03:00N 43°39' E 007°43'4 8.2
2019-Jun-07 02:30N 43°39' E 007°49'4 8.0
2019-Jun-07 02:00N 43°39' E 007°54'4 7.8
2019-Jun-07 01:30N 43°39' E 007°60'4 7.8
2019-Jun-07 01:00N 43°39' E 008°05'4 7.7
2019-Jun-07 00:30N 43°42' E 008°09'4 7.8
2019-Jun-07 00:00N 43°44' E 008°14'4 7.9
2019-Jun-06 23:30N 43°46' E 008°18'4 7.8
2019-Jun-06 23:00N 43°48' E 008°23'4 7.7
2019-Jun-06 22:30N 43°51' E 008°27'4 8.0
2019-Jun-06 22:00N 43°53' E 008°31'4 8.1
2019-Jun-06 21:30N 43°55' E 008°36'4 7.9
2019-Jun-06 21:00N 43°57' E 008°41'4 7.9
2019-Jun-06 20:30N 43°60' E 008°45'4 7.9
2019-Jun-06 20:00N 44°02' E 008°49'4 7.8
2019-Jun-06 19:30N 44°04' E 008°54'4 8.0
2019-Jun-06 19:00N 44°07' E 008°58'4 8.1
2019-Jun-06 18:30N 44°09' E 009°03'4 8.1
2019-Jun-06 18:00N 44°12' E 009°07'4 8.3
2019-Jun-06 17:30N 44°14' E 009°12'4 8.7
2019-Jun-06 17:00N 44°18' E 009°14'0 0.1
2019-Jun-06 16:22N 44°18' E 009°14'0 0.0
2019-Jun-06 15:49N 44°18' E 009°14'0 0.1
2019-Jun-06 15:13N 44°18' E 009°14'0 0.0
2019-Jun-06 14:58N 44°18' E 009°14'0 0.0
2019-Jun-06 14:28N 44°18' E 009°14'0 0.0
2019-Jun-06 13:55N 44°18' E 009°14'0 0.0
2019-Jun-06 13:22N 44°18' E 009°14'0 0.0
2019-Jun-06 12:55N 44°18' E 009°14'0 0.0
2019-Jun-06 12:28N 44°18' E 009°14'0 0.0
2019-Jun-06 11:58N 44°18' E 009°14'0 0.0
2019-Jun-06 11:19N 44°18' E 009°14'0 0.0
2019-Jun-06 10:52N 44°18' E 009°14'0 0.0
2019-Jun-06 10:28N 44°18' E 009°14'0 0.0
2019-Jun-06 09:43N 44°18' E 009°14'0 0.1
2019-Jun-06 09:19N 44°18' E 009°14'0 0.1
2019-Jun-06 08:49N 44°18' E 009°14'0 0.1
2019-Jun-06 08:28N 44°18' E 009°14'0 0.0
2019-Jun-06 07:58N 44°18' E 009°14'0 0.1
2019-Jun-06 07:28N 44°18' E 009°14'0 0.0
2019-Jun-06 07:01N 44°18' E 009°14'2 3.1
2019-Jun-06 06:18N 44°17' E 009°16'2 7.0
2019-Jun-06 06:00N 44°15' E 009°17'3 6.9
2019-Jun-06 05:30N 44°12' E 009°19'4 7.1
2019-Jun-06 05:00N 44°09' E 009°21'4 7.3
2019-Jun-06 04:30N 44°05' E 009°23'4 7.4
2019-Jun-06 04:00N 44°02' E 009°25'4 7.2
2019-Jun-06 03:30N 43°58' E 009°27'4 7.5
2019-Jun-06 03:00N 43°55' E 009°29'4 8.1
2019-Jun-06 02:30N 43°51' E 009°31'4 7.9
2019-Jun-06 02:00N 43°47' E 009°33'4 7.6
2019-Jun-06 01:30N 43°44' E 009°35'  

Dump ship's entire track history